Time;durP1;ratioP1;P1;durP2;ratioP2;P2;SDS_P1;SDS_P2;PMS_P1;PMS_P2;Temp;Humidity;BMP_temperature;BMP_pressure;BME280_temperature;BME280_humidity;BME280_pressure;Samples;Min_cycle;Max_cycle;Signal;HPM_P1;HPM_P2
2021/12/23 00:00:54;;;;;;;51.73;21.00;;;-3.00;99.90;;;;;;5013017;28;20548;-60
2021/12/23 00:03:20;;;;;;;53.37;21.43;;;-3.00;99.90;;;;;;5020576;28;20435;-59
2021/12/23 00:05:46;;;;;;;55.70;23.57;;;-3.00;99.90;;;;;;5024577;28;20860;-59
2021/12/23 00:08:11;;;;;;;57.60;22.33;;;-3.00;99.90;;;;;;5018764;28;20190;-60
2021/12/23 00:10:38;;;;;;;54.80;21.60;;;-3.00;99.90;;;;;;5023633;28;20614;-59
2021/12/23 00:13:03;;;;;;;57.37;21.90;;;-3.10;99.90;;;;;;5028031;28;20192;-59
2021/12/23 00:15:37;;;;;;;52.90;19.97;;;-3.10;99.90;;;;;;5021005;28;21113;-60
2021/12/23 00:18:44;;;;;;;51.90;20.90;;;-3.10;99.90;;;;;;5017676;28;20241;-58
2021/12/23 00:23:43;;;;;;;59.43;21.10;;;-3.10;99.90;;;;;;5011568;28;20526;-59
2021/12/23 00:26:09;;;;;;;61.17;22.30;;;-3.10;99.90;;;;;;5020775;28;20447;-58
2021/12/23 00:28:34;;;;;;;52.40;20.80;;;-3.10;99.90;;;;;;5021728;28;20455;-59
2021/12/23 00:31:02;;;;;;;59.33;21.67;;;-3.10;99.90;;;;;;5021686;28;20206;-59
2021/12/23 00:33:29;;;;;;;57.97;21.20;;;-3.10;99.90;;;;;;5025400;28;20173;-57
2021/12/23 00:35:56;;;;;;;58.93;22.00;;;-3.10;99.90;;;;;;5022935;28;20440;-59
2021/12/23 00:38:31;;;;;;;47.73;20.53;;;-3.10;99.90;;;;;;5023960;28;20839;-59
2021/12/23 00:41:01;;;;;;;55.03;21.30;;;-3.10;99.90;;;;;;5019557;28;20878;-60
2021/12/23 00:43:28;;;;;;;54.60;21.93;;;-3.20;99.90;;;;;;5027320;28;20423;-59
2021/12/23 00:45:53;;;;;;;52.00;21.80;;;-3.20;99.90;;;;;;5024921;28;20514;-58
2021/12/23 00:48:19;;;;;;;60.83;22.10;;;-3.20;99.90;;;;;;5028544;28;20453;-60
2021/12/23 00:50:47;;;;;;;53.20;21.00;;;-3.20;99.90;;;;;;5029230;28;20590;-59
2021/12/23 00:53:18;;;;;;;52.13;19.40;;;-3.20;99.90;;;;;;5025310;28;20180;-59
2021/12/23 00:55:45;;;;;;;55.60;21.43;;;-3.20;99.90;;;;;;5028897;28;20452;-59
2021/12/23 00:58:11;;;;;;;56.73;21.63;;;-3.20;99.90;;;;;;5026730;28;20522;-59
2021/12/23 01:00:37;;;;;;;53.60;21.60;;;-3.20;99.90;;;;;;5030735;28;21088;-59
2021/12/23 01:03:03;;;;;;;50.53;20.50;;;-3.20;99.90;;;;;;5025658;28;20280;-59
2021/12/23 01:05:29;;;;;;;47.07;19.93;;;-3.20;99.90;;;;;;5032410;28;20425;-59
2021/12/23 01:07:56;;;;;;;53.00;20.07;;;-3.20;99.90;;;;;;5031543;28;20424;-58
2021/12/23 01:10:23;;;;;;;52.47;18.50;;;-3.20;99.90;;;;;;5031608;28;20935;-58
2021/12/23 01:12:54;;;;;;;56.20;21.47;;;-3.20;99.90;;;;;;5028713;28;20426;-59
2021/12/23 01:17:56;;;;;;;49.47;19.70;;;-3.30;99.90;;;;;;5031928;28;20509;-58
2021/12/23 01:20:28;;;;;;;47.57;18.93;;;-3.30;99.90;;;;;;5029448;28;20463;-58
2021/12/23 01:23:10;;;;;;;50.60;18.83;;;-3.30;99.90;;;;;;5025173;28;20437;-59
2021/12/23 01:25:41;;;;;;;51.00;19.33;;;-3.30;99.90;;;;;;5030838;28;20937;-59
2021/12/23 01:28:08;;;;;;;47.87;19.67;;;-3.40;99.90;;;;;;5030065;28;20909;-59
2021/12/23 01:30:37;;;;;;;47.37;19.50;;;-3.40;99.90;;;;;;5031424;28;21041;-59
2021/12/23 01:33:05;;;;;;;52.43;20.30;;;-3.50;99.90;;;;;;5031210;28;20412;-59
2021/12/23 01:35:31;;;;;;;53.80;20.40;;;-3.60;99.90;;;;;;5025606;28;20862;-59
2021/12/23 01:37:56;;;;;;;52.90;20.07;;;-3.60;99.90;;;;;;5028096;28;20991;-59
2021/12/23 01:40:26;;;;;;;47.63;19.27;;;-3.60;99.90;;;;;;5028076;28;20456;-60
2021/12/23 01:42:51;;;;;;;49.97;20.70;;;-3.60;99.90;;;;;;5027683;28;20204;-60
2021/12/23 01:45:20;;;;;;;47.67;20.57;;;-3.60;99.90;;;;;;5024490;28;20970;-58
2021/12/23 01:47:46;;;;;;;52.70;20.90;;;-3.60;99.90;;;;;;5024622;28;20182;-57
2021/12/23 01:50:15;;;;;;;58.97;22.07;;;-3.60;99.90;;;;;;5028415;28;20447;-60
2021/12/23 01:52:42;;;;;;;45.10;19.30;;;-3.60;99.90;;;;;;5024247;28;20439;-59
2021/12/23 01:55:09;;;;;;;56.53;22.00;;;-3.70;99.90;;;;;;5026784;28;20510;-60
2021/12/23 01:57:35;;;;;;;58.27;22.43;;;-3.70;99.90;;;;;;5030123;28;20945;-59
2021/12/23 02:00:09;;;;;;;57.73;21.97;;;-3.70;99.90;;;;;;5026182;28;20590;-59
2021/12/23 02:02:36;;;;;;;55.47;22.20;;;-3.60;99.90;;;;;;5028487;28;20850;-59
2021/12/23 02:05:02;;;;;;;60.57;21.53;;;-3.60;99.90;;;;;;5028595;28;20442;-60
2021/12/23 02:07:27;;;;;;;56.63;21.60;;;-3.60;99.90;;;;;;5029886;28;20509;-59
2021/12/23 02:09:56;;;;;;;62.27;22.20;;;-3.60;99.90;;;;;;5026704;28;20870;-58
2021/12/23 02:12:22;;;;;;;50.93;20.57;;;-3.60;99.90;;;;;;5028188;28;20811;-59
2021/12/23 02:14:47;;;;;;;56.50;22.57;;;-3.60;99.90;;;;;;5029606;28;20428;-59
2021/12/23 02:17:13;;;;;;;51.73;20.43;;;-3.60;99.90;;;;;;5029302;28;22105;-58
2021/12/23 02:19:39;;;;;;;55.70;22.50;;;-3.50;99.90;;;;;;5030079;28;20193;-58
2021/12/23 02:22:05;;;;;;;54.53;23.13;;;-3.50;99.90;;;;;;5028160;28;20267;-59
2021/12/23 02:24:30;;;;;;;53.27;22.40;;;-3.50;99.90;;;;;;5030189;28;20182;-59
2021/12/23 02:26:56;;;;;;;65.63;22.70;;;-3.50;99.90;;;;;;5030137;28;20771;-59
2021/12/23 02:29:22;;;;;;;58.17;20.73;;;-3.50;99.90;;;;;;5028803;28;20743;-59
2021/12/23 02:31:49;;;;;;;59.43;22.17;;;-3.40;99.90;;;;;;5029842;28;20246;-59
2021/12/23 02:34:19;;;;;;;56.00;21.97;;;-3.40;99.90;;;;;;5027421;28;20297;-59
2021/12/23 02:36:52;;;;;;;68.70;24.03;;;-3.40;99.90;;;;;;5030477;28;20783;-57
2021/12/23 02:39:20;;;;;;;47.63;19.43;;;-3.40;99.90;;;;;;5029141;28;20434;-59
2021/12/23 02:41:47;;;;;;;65.93;24.13;;;-3.40;99.90;;;;;;5029159;28;20410;-58
2021/12/23 02:44:13;;;;;;;53.30;22.57;;;-3.40;99.90;;;;;;5022172;28;20415;-60
2021/12/23 02:46:39;;;;;;;56.60;21.50;;;-3.30;99.90;;;;;;5024687;28;20435;-59
2021/12/23 02:49:05;;;;;;;62.40;21.47;;;-3.30;99.90;;;;;;5022998;28;20529;-59
2021/12/23 02:51:30;;;;;;;61.00;23.03;;;-3.30;99.90;;;;;;5023994;28;20214;-59
2021/12/23 02:53:56;;;;;;;61.47;23.60;;;-3.30;99.90;;;;;;5022455;28;20173;-59
2021/12/23 02:56:22;;;;;;;61.40;23.00;;;-3.30;99.90;;;;;;5022443;28;20562;-59
2021/12/23 02:58:48;;;;;;;57.13;23.60;;;-3.30;99.90;;;;;;5022233;28;20238;-58
2021/12/23 03:01:16;;;;;;;62.40;24.47;;;-3.30;99.90;;;;;;5026379;28;20424;-59
2021/12/23 03:03:43;;;;;;;58.73;22.17;;;-3.30;99.90;;;;;;5023289;28;20434;-59
2021/12/23 03:06:13;;;;;;;66.57;24.90;;;-3.20;99.90;;;;;;5025054;28;20429;-59
2021/12/23 03:08:42;;;;;;;54.17;22.07;;;-3.20;99.90;;;;;;5023503;28;20513;-59
2021/12/23 03:11:10;;;;;;;59.30;23.07;;;-3.20;99.90;;;;;;5020088;28;20564;-59
2021/12/23 03:13:36;;;;;;;63.33;24.27;;;-3.20;99.90;;;;;;5027070;28;20415;-59
2021/12/23 03:16:02;;;;;;;70.50;24.43;;;-3.20;99.90;;;;;;5023166;28;20435;-59
2021/12/23 03:18:29;;;;;;;65.50;23.30;;;-3.20;99.90;;;;;;5024509;28;20457;-60
2021/12/23 03:20:55;;;;;;;62.13;23.73;;;-3.20;99.90;;;;;;5023270;28;20992;-58
2021/12/23 03:23:21;;;;;;;64.47;24.30;;;-3.20;99.90;;;;;;5024993;28;20441;-59
2021/12/23 03:25:47;;;;;;;71.90;24.23;;;-3.20;99.90;;;;;;5018586;28;20941;-57
2021/12/23 03:28:13;;;;;;;72.77;27.07;;;-3.20;99.90;;;;;;5025575;28;20437;-59
2021/12/23 03:30:39;;;;;;;66.83;23.27;;;-3.20;99.90;;;;;;5025381;28;20201;-59
2021/12/23 03:33:05;;;;;;;72.70;26.10;;;-3.10;99.90;;;;;;5023689;28;20173;-59
2021/12/23 03:35:31;;;;;;;67.43;24.40;;;-3.20;99.90;;;;;;5025548;28;20729;-59
2021/12/23 03:37:57;;;;;;;67.30;24.90;;;-3.20;99.90;;;;;;5023505;28;20517;-59
2021/12/23 03:40:23;;;;;;;69.43;25.27;;;-3.20;99.90;;;;;;5020648;28;20196;-58
2021/12/23 03:42:49;;;;;;;61.53;24.93;;;-3.10;99.90;;;;;;5023573;28;20429;-59
2021/12/23 03:45:16;;;;;;;65.73;24.13;;;-3.10;99.90;;;;;;5024975;28;20675;-58
2021/12/23 03:47:43;;;;;;;59.73;23.20;;;-3.10;99.90;;;;;;5024132;28;20527;-57
2021/12/23 03:50:08;;;;;;;63.03;21.87;;;-3.10;99.90;;;;;;5020514;28;20739;-59
2021/12/23 03:52:34;;;;;;;63.90;25.63;;;-3.10;99.90;;;;;;5023677;28;20462;-59
2021/12/23 03:55:01;;;;;;;65.30;25.47;;;-3.10;99.90;;;;;;5022959;28;20435;-59
2021/12/23 03:57:27;;;;;;;63.00;23.90;;;-3.10;99.90;;;;;;5023122;28;20748;-57
2021/12/23 03:59:52;;;;;;;62.77;24.00;;;-3.10;99.90;;;;;;5026215;28;20460;-59
2021/12/23 04:02:18;;;;;;;72.43;24.80;;;-3.10;99.90;;;;;;5024148;28;20434;-60
2021/12/23 04:04:45;;;;;;;63.80;22.80;;;-3.10;99.90;;;;;;5038578;28;20185;-59
2021/12/23 04:07:11;;;;;;;64.30;24.13;;;-3.10;99.90;;;;;;5023740;28;20450;-59
2021/12/23 04:09:36;;;;;;;74.23;25.00;;;-3.10;99.90;;;;;;5022222;28;20965;-59
2021/12/23 04:12:03;;;;;;;65.07;24.70;;;-3.10;99.90;;;;;;5022491;28;20292;-59
2021/12/23 04:14:29;;;;;;;61.27;24.07;;;-3.10;99.90;;;;;;5023201;28;20181;-59
2021/12/23 04:16:54;;;;;;;66.57;24.70;;;-3.10;99.90;;;;;;5024914;28;20489;-60
2021/12/23 04:19:20;;;;;;;73.77;24.97;;;-3.10;99.90;;;;;;5020226;28;20210;-60
2021/12/23 04:21:46;;;;;;;63.30;25.40;;;-3.10;99.90;;;;;;5023339;28;20234;-60
2021/12/23 04:24:12;;;;;;;62.83;24.63;;;-3.10;99.90;;;;;;5022840;28;20241;-59
2021/12/23 04:26:39;;;;;;;71.87;25.87;;;-3.00;99.90;;;;;;5022618;28;20188;-58
2021/12/23 04:29:05;;;;;;;68.33;24.87;;;-3.00;99.90;;;;;;5022880;28;20442;-59
2021/12/23 04:31:31;;;;;;;69.40;25.03;;;-3.10;99.90;;;;;;5022524;28;20464;-59
2021/12/23 04:33:58;;;;;;;65.90;24.30;;;-3.10;99.90;;;;;;5025102;28;20422;-59
2021/12/23 04:36:29;;;;;;;70.90;24.90;;;-3.00;99.90;;;;;;5024420;28;20443;-60
2021/12/23 04:38:55;;;;;;;66.27;23.90;;;-3.00;99.90;;;;;;5035841;28;20462;-60
2021/12/23 04:41:21;;;;;;;60.10;23.40;;;-3.00;99.90;;;;;;5022292;28;20440;-59
2021/12/23 04:43:47;;;;;;;60.60;25.00;;;-3.10;99.90;;;;;;5022448;28;20440;-60
2021/12/23 04:46:12;;;;;;;59.20;22.83;;;-3.10;99.90;;;;;;5021438;28;20656;-60
2021/12/23 04:48:38;;;;;;;67.97;24.33;;;-3.10;99.90;;;;;;5021663;28;20460;-58
2021/12/23 04:51:04;;;;;;;64.00;24.97;;;-3.10;99.90;;;;;;5023510;28;20200;-60
2021/12/23 04:53:30;;;;;;;61.43;22.60;;;-3.10;99.90;;;;;;5019363;28;20188;-60
2021/12/23 04:55:57;;;;;;;66.17;23.07;;;-3.10;99.90;;;;;;5021820;28;20447;-60
2021/12/23 04:58:23;;;;;;;57.57;23.20;;;-3.10;99.90;;;;;;5022132;28;20928;-59
2021/12/23 05:00:50;;;;;;;68.20;25.67;;;-3.10;99.90;;;;;;5022438;28;20448;-59
2021/12/23 05:03:21;;;;;;;64.63;23.00;;;-3.10;99.90;;;;;;5023340;28;20935;-58
2021/12/23 05:05:48;;;;;;;53.73;23.20;;;-3.10;99.90;;;;;;5022099;28;20436;-59
2021/12/23 05:08:14;;;;;;;55.10;23.00;;;-3.20;99.90;;;;;;5011778;28;20441;-60
2021/12/23 05:10:41;;;;;;;62.47;22.27;;;-3.10;99.90;;;;;;5017604;28;22759;-58
2021/12/23 05:13:07;;;;;;;62.00;23.00;;;-3.10;99.90;;;;;;5017279;28;20461;-59
2021/12/23 05:15:33;;;;;;;57.93;23.37;;;-3.20;99.90;;;;;;5023083;28;20431;-59
2021/12/23 05:17:58;;;;;;;61.43;23.50;;;-3.20;99.90;;;;;;5019355;28;20482;-61
2021/12/23 05:20:24;;;;;;;61.17;22.03;;;-3.20;99.90;;;;;;5021720;28;20733;-62
2021/12/23 05:22:50;;;;;;;63.43;23.90;;;-3.20;99.90;;;;;;5025486;28;20263;-62
2021/12/23 05:25:17;;;;;;;62.20;23.00;;;-3.20;99.90;;;;;;5028077;28;20431;-60
2021/12/23 05:27:43;;;;;;;61.00;23.30;;;-3.20;99.90;;;;;;5028471;28;20427;-60
2021/12/23 05:30:15;;;;;;;61.70;24.33;;;-3.30;99.90;;;;;;5023790;28;20495;-58
2021/12/23 05:32:42;;;;;;;72.87;25.27;;;-3.30;99.90;;;;;;5025096;28;20432;-59
2021/12/23 05:35:10;;;;;;;63.77;23.80;;;-3.30;99.90;;;;;;5021571;28;21083;-60
2021/12/23 05:37:36;;;;;;;62.70;25.23;;;-3.30;99.90;;;;;;5020780;28;20436;-59
2021/12/23 05:40:04;;;;;;;59.57;23.67;;;-3.40;99.90;;;;;;5020071;28;20449;-58
2021/12/23 05:42:30;;;;;;;67.37;25.50;;;-3.40;99.90;;;;;;5018489;28;20505;-59
2021/12/23 05:44:55;;;;;;;70.90;26.47;;;-3.40;99.90;;;;;;5023341;28;20447;-59
2021/12/23 05:47:21;;;;;;;75.10;26.67;;;-3.40;99.90;;;;;;5025639;28;20453;-60
2021/12/23 05:49:47;;;;;;;64.27;25.50;;;-3.40;99.90;;;;;;5022508;28;20225;-60
2021/12/23 05:52:12;;;;;;;65.40;23.60;;;-3.50;99.90;;;;;;5020383;28;20232;-61
2021/12/23 05:54:38;;;;;;;71.60;27.40;;;-3.50;99.90;;;;;;5018476;28;20219;-60
2021/12/23 05:57:04;;;;;;;69.67;25.40;;;-3.50;99.90;;;;;;5023007;28;20184;-61
2021/12/23 05:59:31;;;;;;;61.27;24.63;;;-3.50;99.90;;;;;;5049192;22;20228;-59
2021/12/23 06:01:57;;;;;;;65.53;25.50;;;-3.50;99.90;;;;;;5028201;28;20268;-56
2021/12/23 06:04:24;;;;;;;65.70;23.37;;;-3.60;99.90;;;;;;5027981;28;20527;-58
2021/12/23 06:06:49;;;;;;;65.83;25.67;;;-3.60;99.90;;;;;;5021726;28;20543;-58
2021/12/23 06:09:15;;;;;;;61.20;24.40;;;-3.60;99.90;;;;;;5019369;28;20540;-60
2021/12/23 06:11:41;;;;;;;68.30;23.33;;;-3.60;99.90;;;;;;5000216;28;20298;-56
2021/12/23 06:14:06;;;;;;;72.37;25.73;;;-3.70;99.90;;;;;;5003248;28;20491;-60
2021/12/23 06:16:32;;;;;;;65.23;24.80;;;-3.70;99.90;;;;;;4999513;28;20190;-59
2021/12/23 06:18:59;;;;;;;63.33;23.33;;;-3.70;99.90;;;;;;4999009;28;20227;-58
2021/12/23 06:21:28;;;;;;;66.47;25.00;;;-3.80;99.90;;;;;;5001465;28;20446;-56
2021/12/23 06:23:54;;;;;;;62.67;24.50;;;-3.80;99.90;;;;;;4999969;28;20423;-59
2021/12/23 06:26:21;;;;;;;61.80;25.30;;;-3.80;99.90;;;;;;4999577;28;20429;-60
2021/12/23 06:28:47;;;;;;;60.80;24.10;;;-3.90;99.90;;;;;;5002351;28;20199;-60
2021/12/23 06:31:13;;;;;;;63.60;21.43;;;-3.90;99.90;;;;;;5002297;28;20463;-58
2021/12/23 06:33:38;;;;;;;68.37;24.77;;;-3.90;99.90;;;;;;5002002;28;20596;-59
2021/12/23 06:36:05;;;;;;;70.40;24.57;;;-4.00;99.90;;;;;;4998040;28;20179;-60
2021/12/23 06:38:31;;;;;;;63.23;24.93;;;-4.00;99.90;;;;;;5002605;28;20614;-58
2021/12/23 06:40:59;;;;;;;61.40;22.50;;;-4.00;99.90;;;;;;4999988;28;20473;-58
2021/12/23 06:43:25;;;;;;;71.83;24.87;;;-4.00;99.90;;;;;;4998654;28;20432;-58
2021/12/23 06:45:50;;;;;;;72.27;24.60;;;-4.10;99.90;;;;;;5004522;28;20435;-57
2021/12/23 06:48:16;;;;;;;64.40;22.80;;;-4.10;99.90;;;;;;5000003;28;20692;-57
2021/12/23 06:50:42;;;;;;;64.83;22.87;;;-4.10;99.90;;;;;;5000051;28;20245;-60
2021/12/23 06:53:08;;;;;;;63.63;23.77;;;-4.00;99.90;;;;;;4999698;28;20231;-59
2021/12/23 06:55:34;;;;;;;57.90;22.13;;;-4.00;99.90;;;;;;5002577;28;22242;-59
2021/12/23 06:58:00;;;;;;;62.90;23.33;;;-4.00;99.90;;;;;;4996678;28;20194;-58
2021/12/23 07:00:28;;;;;;;65.77;24.73;;;-4.00;99.90;;;;;;5001085;28;20459;-58
2021/12/23 07:02:54;;;;;;;54.87;22.00;;;-4.00;99.90;;;;;;5000193;28;20848;-58
2021/12/23 07:05:22;;;;;;;60.47;23.73;;;-4.00;99.90;;;;;;5000806;28;20440;-56
2021/12/23 07:10:17;;;;;;;58.37;21.50;;;-4.00;99.90;;;;;;4997371;28;20445;-57
2021/12/23 07:12:42;;;;;;;64.90;23.40;;;-4.00;99.90;;;;;;5001442;28;20491;-59
2021/12/23 07:15:08;;;;;;;67.33;24.47;;;-4.00;99.90;;;;;;5000000;28;20565;-57
2021/12/23 07:17:35;;;;;;;75.93;24.70;;;-4.00;99.90;;;;;;5000481;28;20178;-57
2021/12/23 07:20:02;;;;;;;57.77;21.83;;;-3.90;99.90;;;;;;4997348;28;20456;-58
2021/12/23 07:22:28;;;;;;;58.63;22.63;;;-3.90;99.90;;;;;;4995202;28;20922;-62
2021/12/23 07:24:53;;;;;;;66.93;24.60;;;-3.90;99.90;;;;;;4997085;28;20444;-57
2021/12/23 07:27:19;;;;;;;73.23;24.03;;;-3.90;99.90;;;;;;4998836;28;20195;-58
2021/12/23 07:29:45;;;;;;;56.53;21.60;;;-3.90;99.90;;;;;;4999717;28;20209;-57
2021/12/23 07:32:10;;;;;;;62.27;24.27;;;-4.00;99.90;;;;;;5002216;28;20212;-58
2021/12/23 07:34:39;;;;;;;71.00;23.37;;;-4.00;99.90;;;;;;5000426;28;20178;-57
2021/12/23 07:37:05;;;;;;;62.50;24.07;;;-4.00;99.90;;;;;;4998418;28;20210;-56
2021/12/23 07:39:30;;;;;;;57.53;20.87;;;-3.90;99.90;;;;;;4999960;28;20457;-60
2021/12/23 07:41:57;;;;;;;53.47;22.00;;;-3.90;99.90;;;;;;4994993;28;20439;-58
2021/12/23 07:44:22;;;;;;;63.97;21.63;;;-3.80;99.90;;;;;;4999477;28;20716;-57
2021/12/23 07:46:50;;;;;;;63.43;21.73;;;-3.90;99.90;;;;;;4998852;28;20437;-61
2021/12/23 07:49:17;;;;;;;62.70;23.67;;;-3.90;99.90;;;;;;5005402;28;20293;-58
2021/12/23 07:51:43;;;;;;;61.57;21.40;;;-3.90;99.90;;;;;;4998329;28;20467;-58
2021/12/23 07:54:09;;;;;;;56.27;22.00;;;-3.90;99.90;;;;;;4998955;28;21194;-58
2021/12/23 07:56:35;;;;;;;59.43;22.70;;;-3.90;99.90;;;;;;5002044;28;20221;-58
2021/12/23 07:59:01;;;;;;;65.70;25.60;;;-3.90;99.90;;;;;;5003806;28;20444;-62
2021/12/23 08:01:26;;;;;;;61.73;24.40;;;-3.90;99.90;;;;;;5021035;28;20426;-62
2021/12/23 08:03:52;;;;;;;54.50;22.00;;;-3.90;99.90;;;;;;5021836;28;20439;-60
2021/12/23 08:06:18;;;;;;;72.30;23.70;;;-3.90;99.90;;;;;;5012568;28;20267;-58
2021/12/23 08:08:43;;;;;;;61.47;24.70;;;-3.90;99.90;;;;;;5005731;28;20588;-63
2021/12/23 08:11:09;;;;;;;60.03;21.70;;;-3.90;99.90;;;;;;5001951;28;20199;-59
2021/12/23 08:13:36;;;;;;;59.77;21.80;;;-3.80;99.90;;;;;;5003807;28;20569;-58
2021/12/23 08:16:03;;;;;;;58.17;20.90;;;-3.80;99.90;;;;;;4997633;28;20468;-58
2021/12/23 08:18:30;;;;;;;58.53;22.17;;;-3.80;99.90;;;;;;4995040;28;20484;-60
2021/12/23 08:20:56;;;;;;;57.27;21.00;;;-3.80;99.90;;;;;;5004165;28;20544;-58
2021/12/23 08:23:22;;;;;;;62.80;21.80;;;-3.80;99.90;;;;;;5003164;28;20430;-59
2021/12/23 08:25:48;;;;;;;67.73;24.37;;;-3.80;99.90;;;;;;4994417;28;20396;-58
2021/12/23 08:28:14;;;;;;;71.03;23.27;;;-3.70;99.90;;;;;;5005250;28;20540;-58
2021/12/23 08:30:40;;;;;;;58.47;23.67;;;-3.70;99.90;;;;;;4999771;28;20705;-59
2021/12/23 08:33:07;;;;;;;71.90;24.93;;;-3.70;99.90;;;;;;4997612;28;20257;-59
2021/12/23 08:35:33;;;;;;;67.43;23.23;;;-3.70;99.90;;;;;;4994584;28;20575;-57
2021/12/23 08:37:59;;;;;;;70.33;23.50;;;-3.60;99.90;;;;;;4999788;28;20460;-58
2021/12/23 08:40:27;;;;;;;69.07;24.60;;;-3.60;99.90;;;;;;4998750;28;20862;-59
2021/12/23 08:42:56;;;;;;;79.73;24.87;;;-3.50;99.90;;;;;;4997039;28;20430;-59
2021/12/23 08:45:23;;;;;;;71.20;23.73;;;-3.50;99.90;;;;;;5003928;28;21063;-59
2021/12/23 08:47:50;;;;;;;66.80;23.83;;;-3.40;99.90;;;;;;4998155;28;20456;-59
2021/12/23 08:50:18;;;;;;;68.87;26.67;;;-3.40;99.90;;;;;;5003304;28;20448;-60
2021/12/23 08:52:44;;;;;;;74.57;25.20;;;-3.30;99.90;;;;;;5026883;28;20467;-60
2021/12/23 08:55:11;;;;;;;73.00;25.67;;;-3.20;99.90;;;;;;5021985;28;20428;-60
2021/12/23 08:57:37;;;;;;;67.40;23.80;;;-3.10;99.90;;;;;;5020756;28;20440;-59
2021/12/23 09:00:06;;;;;;;63.70;23.13;;;-3.00;99.90;;;;;;5009541;28;20539;-60
2021/12/23 09:02:32;;;;;;;61.30;24.13;;;-2.90;99.90;;;;;;5006771;28;20429;-59
2021/12/23 09:04:58;;;;;;;59.10;22.17;;;-2.90;99.90;;;;;;5011675;28;20441;-59
2021/12/23 09:07:23;;;;;;;62.97;23.90;;;-2.80;99.90;;;;;;5016664;28;20178;-59
2021/12/23 09:09:51;;;;;;;58.57;23.33;;;-2.80;99.90;;;;;;5017806;28;20290;-60
2021/12/23 09:12:18;;;;;;;68.20;25.57;;;-2.70;99.90;;;;;;5030378;28;20257;-68
2021/12/23 09:14:44;;;;;;;74.83;26.30;;;-2.60;99.90;;;;;;5029791;28;20592;-61
2021/12/23 09:17:10;;;;;;;60.20;23.57;;;-2.60;99.90;;;;;;5020641;28;20830;-56
2021/12/23 09:19:35;;;;;;;67.43;25.33;;;-2.50;99.90;;;;;;5003192;28;20213;-55
2021/12/23 09:22:02;;;;;;;67.73;25.43;;;-2.40;99.90;;;;;;5006033;28;20432;-55
2021/12/23 09:24:28;;;;;;;65.23;24.57;;;-2.40;99.90;;;;;;5007413;28;20242;-56
2021/12/23 09:34:47;;;;;;;58.87;23.03;;;-2.10;99.90;;;;;;5004840;28;20189;-57
2021/12/23 09:37:13;;;;;;;60.60;23.10;;;-2.10;99.90;;;;;;5010061;28;20413;-56
2021/12/23 09:39:39;;;;;;;68.27;25.50;;;-2.00;99.90;;;;;;4995822;28;20436;-57
2021/12/23 09:42:05;;;;;;;68.63;23.40;;;-2.00;99.90;;;;;;5005750;28;20453;-55
2021/12/23 09:44:31;;;;;;;63.30;25.03;;;-1.90;99.90;;;;;;5010489;28;20185;-56
2021/12/23 09:47:03;;;;;;;62.03;23.77;;;-1.90;99.90;;;;;;5001455;28;21056;-57
2021/12/23 09:49:30;;;;;;;62.83;27.00;;;-1.90;99.90;;;;;;4995640;28;20463;-55
2021/12/23 09:51:57;;;;;;;57.30;23.30;;;-1.80;99.90;;;;;;4997634;28;20479;-56
2021/12/23 09:54:25;;;;;;;62.23;21.80;;;-1.80;99.90;;;;;;5008441;28;20520;-56
2021/12/23 09:56:52;;;;;;;59.97;22.87;;;-1.80;99.90;;;;;;4999289;28;20455;-55
2021/12/23 09:59:20;;;;;;;63.83;23.20;;;-1.70;99.90;;;;;;4995469;28;20553;-58
2021/12/23 10:01:46;;;;;;;55.70;23.87;;;-1.60;99.90;;;;;;5004217;28;20440;-56
2021/12/23 10:04:12;;;;;;;58.70;23.77;;;-1.60;99.90;;;;;;5011798;28;20475;-54
2021/12/23 10:06:39;;;;;;;57.70;24.07;;;-1.50;99.90;;;;;;5004543;28;20496;-55
2021/12/23 10:09:05;;;;;;;65.73;24.67;;;-1.50;99.90;;;;;;5002128;28;20201;-57
2021/12/23 10:12:06;;;;;;;56.23;23.00;;;-1.40;99.80;;;;;;4998949;28;21446;-54
2021/12/23 10:32:12;;;;;;;58.80;22.90;;;-1.20;99.90;;;;;;4994491;28;20898;-56
2021/12/23 10:39:44;;;;;;;61.90;24.13;;;-1.10;99.90;;;;;;5004804;28;20255;-56
2021/12/23 10:42:14;;;;;;;68.60;24.47;;;-1.10;99.70;;;;;;4994026;28;20460;-56
2021/12/23 10:44:58;;;;;;;65.50;22.60;;;-1.10;99.90;;;;;;4994291;28;20624;-55
2021/12/23 10:47:47;;;;;;;59.53;22.10;;;-1.00;99.90;;;;;;4995570;28;20534;-56
2021/12/23 10:50:42;;;;;;;61.10;22.57;;;-1.00;99.90;;;;;;4999188;28;20489;-56
2021/12/23 10:53:13;;;;;;;61.87;23.63;;;-0.90;99.30;;;;;;5001905;28;20417;-56
2021/12/23 10:58:24;;;;;;;58.20;23.67;;;-0.90;99.40;;;;;;4998028;28;20428;-55
2021/12/23 11:00:54;;;;;;;63.27;23.80;;;-0.90;99.60;;;;;;5014009;28;20450;-54
2021/12/23 11:03:34;;;;;;;60.63;24.17;;;-0.90;99.30;;;;;;4992791;28;20446;-54
2021/12/23 11:06:08;;;;;;;53.87;21.67;;;-0.80;99.30;;;;;;5005079;28;20426;-55
2021/12/23 11:08:58;;;;;;;61.63;24.83;;;-0.80;99.40;;;;;;5004691;28;20429;-54
2021/12/23 11:37:11;;;;;;;64.93;26.10;;;0.10;97.40;;;;;;5003703;28;20528;-55
2021/12/23 11:42:25;;;;;;;59.40;23.90;;;0.10;98.10;;;;;;5004586;28;20427;-57
2021/12/23 11:44:52;;;;;;;66.63;25.40;;;0.20;98.10;;;;;;5002489;28;20891;-57
2021/12/23 11:47:18;;;;;;;72.10;28.13;;;0.30;98.10;;;;;;5007221;28;20417;-57
2021/12/23 11:49:46;;;;;;;58.30;24.27;;;0.30;97.50;;;;;;5002518;28;20799;-56
2021/12/23 11:52:13;;;;;;;57.53;24.03;;;0.30;97.40;;;;;;5002683;28;20242;-54
2021/12/23 11:54:42;;;;;;;65.10;26.10;;;0.30;98.20;;;;;;5006291;28;20509;-55
2021/12/23 11:57:14;;;;;;;56.07;23.50;;;0.40;98.60;;;;;;4999876;28;20426;-56
2021/12/23 11:59:42;;;;;;;52.40;24.63;;;0.40;98.40;;;;;;5003580;28;20465;-55
2021/12/23 12:02:19;;;;;;;56.03;24.73;;;0.50;98.60;;;;;;4993315;28;20600;-55
2021/12/23 12:04:47;;;;;;;55.90;24.93;;;0.60;98.70;;;;;;4993249;28;20544;-58
2021/12/23 12:07:19;;;;;;;58.93;24.40;;;0.60;98.40;;;;;;5004538;28;20652;-57
2021/12/23 12:10:09;;;;;;;59.27;23.97;;;0.70;98.00;;;;;;5001063;28;20457;-58
2021/12/23 12:12:56;;;;;;;58.20;23.27;;;0.80;97.80;;;;;;5001044;28;20463;-57
2021/12/23 12:15:43;;;;;;;66.07;24.07;;;0.80;98.00;;;;;;4992601;28;20425;-57
2021/12/23 12:18:12;;;;;;;56.33;23.77;;;0.90;97.80;;;;;;5014075;28;20433;-56
2021/12/23 12:20:49;;;;;;;66.20;25.63;;;1.00;97.10;;;;;;4990096;28;20464;-57
2021/12/23 12:23:33;;;;;;;59.00;22.87;;;1.00;97.00;;;;;;4994107;28;20429;-55
2021/12/23 12:26:12;;;;;;;65.80;23.67;;;1.00;97.20;;;;;;4993074;28;20926;-57
2021/12/23 12:28:47;;;;;;;54.77;23.60;;;1.00;97.50;;;;;;5003655;28;20829;-54
2021/12/23 12:31:16;;;;;;;57.60;21.63;;;1.00;97.50;;;;;;5007802;28;20471;-56
2021/12/23 12:34:05;;;;;;;59.43;24.23;;;1.00;97.60;;;;;;5012236;28;20579;-59
2021/12/23 12:36:32;;;;;;;55.90;23.17;;;1.00;97.70;;;;;;5025736;28;20972;-62
2021/12/23 12:39:03;;;;;;;55.27;22.60;;;1.00;97.90;;;;;;5036154;28;20463;-60
2021/12/23 12:41:33;;;;;;;56.03;22.43;;;1.00;98.10;;;;;;5028692;28;20426;-62
2021/12/23 12:44:13;;;;;;;71.03;23.80;;;1.00;98.10;;;;;;5030901;28;20417;-62
2021/12/23 12:46:50;;;;;;;60.90;24.17;;;1.00;98.20;;;;;;5033990;28;20421;-61
2021/12/23 12:49:28;;;;;;;56.07;26.03;;;1.00;98.40;;;;;;5038984;28;20436;-59
2021/12/23 12:52:06;;;;;;;58.50;23.70;;;1.00;98.80;;;;;;5024466;28;20465;-61
2021/12/23 12:54:33;;;;;;;56.23;22.67;;;0.90;99.20;;;;;;5033804;28;20430;-59
2021/12/23 12:57:09;;;;;;;64.03;23.30;;;0.90;99.30;;;;;;5024466;28;20429;-61
2021/12/23 12:59:41;;;;;;;65.13;26.50;;;0.90;99.60;;;;;;5027295;28;20512;-62
2021/12/23 13:02:30;;;;;;;62.40;24.47;;;0.90;99.80;;;;;;5027075;28;20453;-62
2021/12/23 13:05:14;;;;;;;64.50;23.90;;;0.90;99.90;;;;;;5029227;28;20440;-61
2021/12/23 13:07:42;;;;;;;55.47;23.27;;;0.90;99.90;;;;;;5028621;28;20438;-59
2021/12/23 13:10:21;;;;;;;51.77;22.77;;;0.90;99.90;;;;;;5020101;28;20456;-60
2021/12/23 13:12:51;;;;;;;54.33;23.43;;;0.90;99.90;;;;;;5020501;28;20460;-56
2021/12/23 13:15:21;;;;;;;65.93;23.67;;;0.90;99.90;;;;;;5011374;28;20445;-56
2021/12/23 13:17:52;;;;;;;65.70;25.63;;;1.00;99.90;;;;;;5016539;28;20425;-60
2021/12/23 13:20:18;;;;;;;63.60;24.80;;;1.00;99.90;;;;;;5014051;28;21270;-57
2021/12/23 13:22:45;;;;;;;70.33;23.47;;;1.00;99.90;;;;;;5011529;28;20500;-54
2021/12/23 13:25:12;;;;;;;56.50;23.23;;;0.90;99.90;;;;;;5004879;28;20463;-59
2021/12/23 13:27:40;;;;;;;61.57;22.70;;;1.00;99.90;;;;;;5008857;28;20425;-59
2021/12/23 13:30:10;;;;;;;63.60;23.60;;;1.00;99.90;;;;;;4996488;28;20444;-58
2021/12/23 13:32:36;;;;;;;58.90;24.30;;;1.00;99.90;;;;;;5008762;28;20519;-54
2021/12/23 13:35:15;;;;;;;58.60;23.90;;;1.00;99.90;;;;;;5004125;28;20648;-59
2021/12/23 13:37:46;;;;;;;57.77;21.30;;;1.00;99.90;;;;;;5006571;28;20426;-58
2021/12/23 13:40:27;;;;;;;55.43;22.13;;;1.00;99.90;;;;;;5003958;28;20556;-56
2021/12/23 13:42:52;;;;;;;60.60;24.47;;;1.00;99.90;;;;;;5003027;28;20425;-59